createdAt,value
2018-06-02T00:00:01.233Z,99.9
2018-06-02T00:01:09.436Z,99.9
2018-06-02T00:02:17.632Z,99.9
2018-06-02T00:03:25.864Z,99.9
2018-06-02T00:04:33.152Z,99.9
2018-06-02T00:05:40.340Z,99.9
2018-06-02T00:06:47.549Z,99.9
2018-06-02T00:07:54.757Z,99.9
2018-06-02T00:09:02.956Z,99.9
2018-06-02T00:10:10.184Z,99.9
2018-06-02T00:11:17.383Z,99.9
2018-06-02T00:12:24.693Z,99.9
2018-06-02T00:13:32.893Z,99.9
2018-06-02T00:14:41.093Z,99.9
2018-06-02T00:15:49.299Z,99.9
2018-06-02T00:16:57.497Z,99.9
2018-06-02T00:18:04.689Z,99.9
2018-06-02T00:19:12.898Z,99.9
2018-06-02T00:20:21.096Z,99.9
2018-06-02T00:21:28.300Z,99.9
2018-06-02T00:22:36.526Z,99.9
2018-06-02T00:23:44.726Z,99.9
2018-06-02T00:24:52.960Z,99.9
2018-06-02T00:26:00.359Z,99.9
2018-06-02T00:27:08.382Z,99.9
2018-06-02T00:28:16.426Z,99.9
2018-06-02T00:29:24.353Z,99.9
2018-06-02T00:30:32.553Z,99.9
2018-06-02T00:31:40.747Z,99.9
2018-06-02T00:32:47.940Z,99.9
2018-06-02T00:33:55.233Z,99.9
2018-06-02T00:35:02.438Z,99.9
2018-06-02T00:36:09.639Z,99.9
2018-06-02T00:37:16.848Z,99.9
2018-06-02T00:38:25.043Z,99.9
2018-06-02T00:39:32.968Z,99.9
2018-06-02T00:40:41.201Z,99.9
2018-06-02T00:41:49.402Z,99.9
2018-06-02T00:42:57.630Z,99.9
2018-06-02T00:44:04.831Z,99.9
2018-06-02T00:45:13.033Z,99.9
2018-06-02T00:46:20.223Z,99.9
2018-06-02T00:47:28.423Z,99.9
2018-06-02T00:48:36.622Z,99.9
2018-06-02T00:49:44.818Z,99.9
2018-06-02T00:50:52.023Z,99.9
2018-06-02T00:52:00.223Z,99.9
2018-06-02T00:53:08.419Z,99.9
2018-06-02T00:54:16.622Z,99.9
2018-06-02T00:55:24.820Z,99.9
2018-06-02T00:56:33.015Z,99.9
2018-06-02T00:57:41.221Z,99.9
2018-06-02T00:58:49.415Z,99.9
2018-06-02T00:59:57.618Z,99.9
2018-06-02T01:01:04.555Z,99.9
2018-06-02T01:02:12.770Z,99.9
2018-06-02T01:03:20.970Z,99.9
2018-06-02T01:04:29.167Z,99.9
2018-06-02T01:05:37.367Z,99.9
2018-06-02T01:06:45.561Z,99.9
2018-06-02T01:07:53.763Z,99.9
2018-06-02T01:09:01.682Z,99.9
2018-06-02T01:10:09.884Z,99.9
2018-06-02T01:11:18.085Z,99.9
2018-06-02T01:12:26.288Z,99.9
2018-06-02T01:13:34.486Z,99.9
2018-06-02T01:14:41.688Z,99.9
2018-06-02T01:15:48.890Z,99.9
2018-06-02T01:16:57.091Z,99.9
2018-06-02T01:18:05.294Z,99.9
2018-06-02T01:19:12.226Z,99.9
2018-06-02T01:20:20.155Z,99.9
2018-06-02T01:21:28.356Z,99.9
2018-06-02T01:22:35.598Z,99.9
2018-06-02T01:23:42.840Z,99.9
2018-06-02T01:24:50.546Z,99.9
2018-06-02T01:25:58.749Z,99.9
2018-06-02T01:27:06.970Z,99.9
2018-06-02T01:28:14.162Z,99.9
2018-06-02T01:29:22.081Z,99.9
2018-06-02T01:30:30.286Z,99.9
2018-06-02T01:31:37.222Z,99.9
2018-06-02T01:32:45.416Z,99.9
2018-06-02T01:33:53.616Z,99.9
2018-06-02T01:35:01.819Z,99.9
2018-06-02T01:36:09.025Z,99.9
2018-06-02T01:37:17.225Z,99.9
2018-06-02T01:38:25.633Z,99.9
2018-06-02T01:39:33.842Z,99.9
2018-06-02T01:40:42.045Z,99.9
2018-06-02T01:41:50.249Z,99.9
2018-06-02T01:42:58.038Z,99.9
2018-06-02T01:44:05.239Z,99.9
2018-06-02T01:45:12.430Z,99.9
2018-06-02T01:46:20.631Z,99.9
2018-06-02T01:47:28.826Z,99.9
2018-06-02T01:48:37.022Z,99.9
2018-06-02T01:49:45.220Z,99.9
2018-06-02T01:50:53.417Z,99.9
2018-06-02T01:52:01.614Z,99.9
2018-06-02T01:53:09.819Z,99.9
2018-06-02T01:54:17.733Z,99.9
2018-06-02T01:55:24.930Z,99.9
2018-06-02T01:56:32.121Z,99.9
2018-06-02T01:57:40.321Z,99.9
2018-06-02T01:58:48.530Z,99.9
2018-06-02T01:59:56.730Z,99.9
2018-06-02T02:01:04.930Z,99.9
2018-06-02T02:02:13.127Z,99.9
2018-06-02T02:03:20.333Z,99.9
2018-06-02T02:04:28.528Z,99.9
2018-06-02T02:05:36.738Z,99.9
2018-06-02T02:06:44.932Z,99.9
2018-06-02T02:07:52.140Z,99.9
2018-06-02T02:09:00.057Z,99.9
2018-06-02T02:10:08.259Z,99.9
2018-06-02T02:11:16.463Z,99.9
2018-06-02T02:12:24.380Z,99.9
2018-06-02T02:13:32.584Z,99.9
2018-06-02T02:14:40.785Z,99.9
2018-06-02T02:15:48.995Z,99.9
2018-06-02T02:16:57.191Z,99.9
2018-06-02T02:18:05.389Z,99.9
2018-06-02T02:19:12.620Z,99.9
2018-06-02T02:20:20.818Z,99.9
2018-06-02T02:21:29.027Z,99.9
2018-06-02T02:22:37.246Z,99.9
2018-06-02T02:23:44.506Z,99.9
2018-06-02T02:24:52.434Z,99.9
2018-06-02T02:26:00.356Z,99.9
2018-06-02T02:27:08.547Z,99.9
2018-06-02T02:28:16.750Z,99.9
2018-06-02T02:29:23.692Z,99.9
2018-06-02T02:30:31.890Z,99.9
2018-06-02T02:33:02.951Z,99.9
2018-06-02T02:34:10.174Z,99.9
2018-06-02T02:35:18.097Z,99.9
2018-06-02T02:36:25.745Z,99.9
2018-06-02T02:37:33.948Z,99.9
2018-06-02T02:38:41.875Z,99.9
2018-06-02T02:39:50.070Z,99.9
2018-06-02T02:40:58.269Z,99.9
2018-06-02T02:42:06.468Z,99.9
2018-06-02T02:43:14.677Z,99.9
2018-06-02T02:44:22.868Z,99.9
2018-06-02T02:45:30.099Z,99.9
2018-06-02T02:46:38.351Z,99.9
2018-06-02T02:47:46.547Z,99.9
2018-06-02T02:48:54.746Z,99.9
2018-06-02T02:50:02.947Z,99.9
2018-06-02T02:51:11.153Z,99.9
2018-06-02T02:52:19.345Z,99.9
2018-06-02T02:53:27.545Z,99.9
2018-06-02T02:54:34.632Z,99.9
2018-06-02T02:55:41.866Z,99.9
2018-06-02T02:56:50.059Z,99.9
2018-06-02T02:57:58.257Z,99.9
2018-06-02T02:59:06.455Z,99.9
2018-06-02T03:00:14.655Z,99.9
2018-06-02T03:01:21.844Z,99.9
2018-06-02T03:02:30.043Z,99.9
2018-06-02T03:03:37.273Z,99.9
2018-06-02T03:04:44.466Z,99.9
2018-06-02T03:05:52.662Z,99.9
2018-06-02T03:07:00.866Z,99.9
2018-06-02T03:08:09.059Z,99.9
2018-06-02T03:09:17.262Z,99.9
2018-06-02T03:10:25.461Z,99.9
2018-06-02T03:11:32.663Z,99.9
2018-06-02T03:12:40.859Z,99.9
2018-06-02T03:13:49.068Z,99.9
2018-06-02T03:14:57.262Z,99.9
2018-06-02T03:16:05.461Z,99.9
2018-06-02T03:17:12.690Z,99.9
2018-06-02T03:18:19.880Z,99.9
2018-06-02T03:19:27.140Z,99.9
2018-06-02T03:20:35.340Z,99.9
2018-06-02T03:21:43.539Z,99.9
2018-06-02T03:22:51.737Z,99.9
2018-06-02T03:23:59.933Z,99.9
2018-06-02T03:25:08.129Z,99.9
2018-06-02T03:26:15.369Z,99.9
2018-06-02T03:27:23.566Z,99.9
2018-06-02T03:28:31.403Z,99.9
2018-06-02T03:29:39.610Z,99.9
2018-06-02T03:30:47.806Z,99.9
2018-06-02T03:31:55.648Z,99.9
2018-06-02T03:33:02.928Z,99.9
2018-06-02T03:34:09.977Z,99.9
2018-06-02T03:35:17.904Z,99.9
2018-06-02T03:36:26.017Z,99.9
2018-06-02T03:37:33.240Z,99.9
2018-06-02T03:38:41.440Z,99.9
2018-06-02T03:39:49.641Z,99.9
2018-06-02T03:40:56.844Z,99.9
2018-06-02T03:42:03.788Z,99.9
2018-06-02T03:43:11.990Z,99.9
2018-06-02T03:44:19.206Z,99.9
2018-06-02T03:45:27.139Z,99.9
2018-06-02T03:46:34.357Z,99.9
2018-06-02T03:47:42.556Z,99.9
2018-06-02T03:48:50.755Z,99.9
2018-06-02T03:49:58.682Z,99.9
2018-06-02T03:51:05.914Z,99.9
2018-06-02T03:52:14.110Z,99.9
2018-06-02T03:53:21.358Z,99.9
2018-06-02T03:54:28.579Z,99.9
2018-06-02T03:55:35.799Z,99.9
2018-06-02T03:56:43.026Z,99.9
2018-06-02T03:57:49.976Z,99.9
2018-06-02T03:58:58.176Z,99.9
2018-06-02T04:00:06.374Z,99.9
2018-06-02T04:01:14.304Z,99.9
2018-06-02T04:02:21.526Z,99.9
2018-06-02T04:03:29.080Z,99.9
2018-06-02T04:04:37.283Z,99.9
2018-06-02T04:05:44.506Z,99.9
2018-06-02T04:06:51.727Z,99.9
2018-06-02T04:07:58.682Z,99.9
2018-06-02T04:09:06.878Z,99.9
2018-06-02T04:10:15.079Z,99.9
2018-06-02T04:11:22.351Z,99.9
2018-06-02T04:12:29.281Z,99.9
2018-06-02T04:13:36.229Z,99.9
2018-06-02T04:14:44.155Z,99.9
2018-06-02T04:15:52.104Z,99.9
2018-06-02T04:16:59.570Z,99.9
2018-06-02T04:18:07.767Z,99.9
2018-06-02T04:19:15.973Z,99.9
2018-06-02T04:20:24.166Z,99.9
2018-06-02T04:21:31.385Z,99.9
2018-06-02T04:22:38.603Z,99.9
2018-06-02T04:23:46.528Z,99.9
2018-06-02T04:24:53.905Z,99.9
2018-06-02T04:26:02.104Z,99.9
2018-06-02T04:27:09.760Z,99.9
2018-06-02T04:28:17.959Z,99.9
2018-06-02T04:29:26.152Z,99.9
2018-06-02T04:30:33.360Z,99.9
2018-06-02T04:31:41.555Z,99.9
2018-06-02T04:32:49.482Z,99.9
2018-06-02T04:33:57.679Z,99.9
2018-06-02T04:35:05.598Z,99.9
2018-06-02T04:36:13.795Z,99.9
2018-06-02T04:37:20.745Z,99.9
2018-06-02T04:38:27.984Z,99.9
2018-06-02T04:39:36.174Z,99.9
2018-06-02T04:40:43.117Z,99.9
2018-06-02T04:41:51.126Z,99.9
2018-06-02T04:42:58.359Z,99.9
2018-06-02T04:44:05.776Z,99.9
2018-06-02T04:45:13.079Z,99.9
2018-06-02T04:46:20.998Z,99.9
2018-06-02T04:47:28.928Z,99.9
2018-06-02T04:48:36.765Z,99.9
2018-06-02T04:49:43.981Z,99.9
2018-06-02T04:50:51.205Z,99.9
2018-06-02T04:51:58.426Z,99.9
2018-06-02T04:53:05.385Z,99.9
2018-06-02T04:54:13.585Z,99.9
2018-06-02T04:55:21.789Z,99.9
2018-06-02T04:56:29.017Z,99.9
2018-06-02T04:57:37.222Z,99.9
2018-06-02T04:58:44.446Z,99.9
2018-06-02T04:59:52.364Z,99.9
2018-06-02T05:01:00.569Z,99.9
2018-06-02T05:02:07.987Z,99.9
2018-06-02T05:03:16.191Z,99.9
2018-06-02T05:04:23.684Z,99.9
2018-06-02T05:05:32.005Z,99.9
2018-06-02T05:06:39.927Z,99.9
2018-06-02T05:07:47.863Z,99.9
2018-06-02T05:08:55.798Z,99.9
2018-06-02T05:10:03.054Z,99.9
2018-06-02T05:11:11.256Z,99.9
2018-06-02T05:12:18.593Z,99.9
2018-06-02T05:13:26.804Z,99.9
2018-06-02T05:14:35.001Z,99.9
2018-06-02T05:15:43.196Z,99.9
2018-06-02T05:16:51.399Z,99.9
2018-06-02T05:17:59.603Z,99.9
2018-06-02T05:19:07.800Z,99.9
2018-06-02T05:20:16.003Z,99.9
2018-06-02T05:21:24.199Z,99.9
2018-06-02T05:22:32.397Z,99.9
2018-06-02T05:23:39.346Z,99.9
2018-06-02T05:24:47.546Z,99.9
2018-06-02T05:25:55.744Z,99.9
2018-06-02T05:27:02.980Z,99.9
2018-06-02T05:28:09.935Z,99.9
2018-06-02T05:29:17.135Z,99.9
2018-06-02T05:30:25.340Z,99.9
2018-06-02T05:31:33.390Z,99.9
2018-06-02T05:32:40.664Z,99.9
2018-06-02T05:33:48.863Z,99.9
2018-06-02T05:34:57.063Z,99.9
2018-06-02T05:36:05.261Z,99.9
2018-06-02T05:37:13.198Z,99.9
2018-06-02T05:38:21.399Z,99.9
2018-06-02T05:39:29.599Z,99.9
2018-06-02T05:40:36.913Z,99.9
2018-06-02T05:41:45.196Z,99.9
2018-06-02T05:42:53.397Z,99.9
2018-06-02T05:44:01.615Z,99.9
2018-06-02T05:45:09.818Z,99.9
2018-06-02T05:46:18.025Z,99.9
2018-06-02T05:47:25.952Z,99.9
2018-06-02T05:48:34.149Z,99.9
2018-06-02T05:49:41.816Z,99.9
2018-06-02T05:50:50.009Z,99.9
2018-06-02T05:51:58.212Z,99.9
2018-06-02T05:53:06.144Z,99.9
2018-06-02T05:54:14.078Z,99.9
2018-06-02T05:55:22.284Z,99.9
2018-06-02T05:56:30.493Z,99.9
2018-06-02T05:57:38.423Z,99.9
2018-06-02T05:58:46.625Z,99.9
2018-06-02T05:59:54.879Z,99.9
2018-06-02T06:01:02.855Z,99.9
2018-06-02T06:02:11.065Z,99.9
2018-06-02T06:03:18.997Z,99.9
2018-06-02T06:04:27.194Z,99.9
2018-06-02T06:05:35.399Z,99.9
2018-06-02T06:06:43.596Z,99.9
2018-06-02T06:07:51.799Z,99.9
2018-06-02T06:10:07.911Z,99.9
2018-06-02T06:11:16.107Z,99.9
2018-06-02T06:12:24.305Z,99.9
2018-06-02T06:13:32.508Z,99.9
2018-06-02T06:14:40.718Z,99.9
2018-06-02T06:15:48.949Z,99.9
2018-06-02T06:16:57.152Z,99.9
2018-06-02T06:18:05.350Z,99.9
2018-06-02T06:19:13.279Z,99.9
2018-06-02T06:20:20.950Z,99.9
2018-06-02T06:21:28.878Z,99.9
2018-06-02T06:22:37.079Z,99.9
2018-06-02T06:23:44.288Z,99.9
2018-06-02T06:24:51.981Z,99.9
2018-06-02T06:26:00.180Z,99.9
2018-06-02T06:27:08.383Z,99.9
2018-06-02T06:28:15.590Z,99.9
2018-06-02T06:29:23.794Z,99.9
2018-06-02T06:30:31.995Z,99.9
2018-06-02T06:31:40.195Z,99.9
2018-06-02T06:32:48.462Z,99.9
2018-06-02T06:33:56.700Z,99.9
2018-06-02T06:35:04.905Z,99.9
2018-06-02T06:36:13.116Z,99.9
2018-06-02T06:37:21.316Z,99.9
2018-06-02T06:38:29.518Z,99.9
2018-06-02T06:39:37.298Z,99.9
2018-06-02T06:40:45.496Z,99.9
2018-06-02T06:41:53.702Z,99.9
2018-06-02T06:43:01.907Z,99.9
2018-06-02T06:44:10.106Z,99.9
2018-06-02T06:45:18.335Z,99.9
2018-06-02T06:46:26.554Z,99.9
2018-06-02T06:47:34.803Z,99.9
2018-06-02T06:48:43.002Z,99.9
2018-06-02T06:49:51.201Z,99.9
2018-06-02T06:50:59.448Z,99.9
2018-06-02T06:52:07.380Z,99.9
2018-06-02T06:53:15.592Z,99.9
2018-06-02T06:54:23.785Z,99.9
2018-06-02T06:55:32.045Z,99.9
2018-06-02T06:56:40.288Z,99.9
2018-06-02T06:57:48.224Z,99.9
2018-06-02T06:58:56.847Z,99.9
2018-06-02T07:00:05.049Z,99.9
2018-06-02T07:01:13.258Z,99.9
2018-06-02T07:02:21.458Z,99.9
2018-06-02T07:03:29.662Z,99.9
2018-06-02T07:04:37.873Z,99.9
2018-06-02T07:05:46.075Z,99.9
2018-06-02T07:06:54.276Z,99.9
2018-06-02T07:08:02.483Z,99.9
2018-06-02T07:09:10.712Z,99.9
2018-06-02T07:10:18.643Z,99.9
2018-06-02T07:11:26.851Z,99.9
2018-06-02T07:12:35.053Z,99.9
2018-06-02T07:13:43.257Z,99.9
2018-06-02T07:14:51.468Z,99.9
2018-06-02T07:15:59.671Z,99.9
2018-06-02T07:17:07.879Z,99.9
2018-06-02T07:18:16.086Z,99.9
2018-06-02T07:19:24.296Z,99.9
2018-06-02T07:20:32.497Z,99.9
2018-06-02T07:21:40.707Z,99.9
2018-06-02T07:22:48.338Z,99.9
2018-06-02T07:23:56.260Z,99.9
2018-06-02T07:25:04.463Z,99.9
2018-06-02T07:26:12.672Z,99.9
2018-06-02T07:27:20.870Z,99.9
2018-06-02T07:28:28.807Z,99.9
2018-06-02T07:29:37.022Z,99.9
2018-06-02T07:30:44.950Z,99.9
2018-06-02T07:31:53.150Z,99.9
2018-06-02T07:33:01.365Z,99.9
2018-06-02T07:34:09.563Z,99.9
2018-06-02T07:35:17.765Z,99.9
2018-06-02T07:36:24.977Z,99.9
2018-06-02T07:37:33.176Z,99.9
2018-06-02T07:38:41.112Z,99.9
2018-06-02T07:39:49.316Z,99.9
2018-06-02T07:40:56.650Z,99.9
2018-06-02T07:42:04.899Z,98
2018-06-02T07:43:13.112Z,97.1
2018-06-02T07:44:21.343Z,99
2018-06-02T07:45:29.907Z,99.6
2018-06-02T07:46:38.113Z,99.9
2018-06-02T07:47:46.314Z,99.9
2018-06-02T07:48:54.524Z,97.9
2018-06-02T07:50:02.747Z,99.9
2018-06-02T07:51:11.214Z,99.9
2018-06-02T07:52:19.417Z,99.9
2018-06-02T07:53:27.617Z,99.9
2018-06-02T07:54:35.552Z,99.9
2018-06-02T07:55:43.475Z,99.9
2018-06-02T07:56:51.685Z,98.2
2018-06-02T07:57:59.890Z,99.9
2018-06-02T07:59:07.824Z,93.7
2018-06-02T08:00:16.028Z,96.4
2018-06-02T08:01:24.234Z,96.6
2018-06-02T08:02:32.444Z,96.7
2018-06-02T08:03:40.647Z,94.9
2018-06-02T08:04:48.854Z,92.6
2018-06-02T08:05:56.784Z,90.2
2018-06-02T08:07:04.996Z,88.7
2018-06-02T08:08:11.964Z,93.9
2018-06-02T08:09:20.181Z,94.4
2018-06-02T08:10:28.385Z,89.4
2018-06-02T08:11:36.636Z,92.2
2018-06-02T08:12:44.838Z,88.8
2018-06-02T08:13:52.777Z,90.5
2018-06-02T08:15:00.995Z,90.8
2018-06-02T08:16:09.193Z,85.1
2018-06-02T08:17:17.113Z,82.7
2018-06-02T08:18:25.050Z,85.4
2018-06-02T08:19:33.262Z,91.4
2018-06-02T08:20:41.203Z,86.6
2018-06-02T08:21:49.406Z,87.1
2018-06-02T08:22:57.620Z,93.8
2018-06-02T08:24:05.547Z,90.6
2018-06-02T08:25:13.755Z,89.2
2018-06-02T08:26:21.956Z,90.5
2018-06-02T08:27:30.165Z,86.5
2018-06-02T08:28:38.372Z,91.4
2018-06-02T08:29:46.591Z,84.7
2018-06-02T08:30:54.798Z,91.1
2018-06-02T08:32:02.730Z,91.4
2018-06-02T08:33:10.673Z,88.5
2018-06-02T08:34:18.922Z,90
2018-06-02T08:35:27.132Z,93
2018-06-02T08:36:35.340Z,93.6
2018-06-02T08:37:43.548Z,91.6
2018-06-02T08:38:51.763Z,89
2018-06-02T08:40:00.069Z,93.4
2018-06-02T08:41:08.278Z,78.7
2018-06-02T08:42:16.491Z,83.8
2018-06-02T08:43:24.426Z,77.9
2018-06-02T08:44:32.634Z,78
2018-06-02T08:45:40.939Z,76.6
2018-06-02T08:46:48.872Z,82.7
2018-06-02T08:47:57.082Z,76.4
2018-06-02T08:49:05.295Z,77
2018-06-02T08:50:13.501Z,65.7
2018-06-02T08:51:21.705Z,71.8
2018-06-02T08:52:29.917Z,68.5
2018-06-02T08:53:38.117Z,65.6
2018-06-02T08:54:46.322Z,74.1
2018-06-02T08:55:54.530Z,73.2
2018-06-02T08:57:02.732Z,75.2
2018-06-02T08:58:10.975Z,78.7
2018-06-02T08:59:19.186Z,78.7
2018-06-02T09:00:26.401Z,78.2
2018-06-02T09:01:34.701Z,78.5
2018-06-02T09:02:41.911Z,90.4
2018-06-02T09:03:50.117Z,85.8
2018-06-02T09:04:57.434Z,71.1
2018-06-02T09:06:05.360Z,57.5
2018-06-02T09:07:12.600Z,59.8
2018-06-02T09:08:20.814Z,58.3
2018-06-02T09:09:29.042Z,67
2018-06-02T09:10:36.268Z,70.3
2018-06-02T09:11:43.235Z,81.6
2018-06-02T09:12:50.483Z,83.6
2018-06-02T09:13:57.717Z,69.7
2018-06-02T09:15:04.949Z,80.1
2018-06-02T09:16:12.188Z,71.8
2018-06-02T09:17:19.419Z,73.7
2018-06-02T09:18:26.658Z,62.5
2018-06-02T09:19:34.861Z,67
2018-06-02T09:20:43.067Z,80.8
2018-06-02T09:21:51.343Z,58.6
2018-06-02T09:22:58.778Z,62
2018-06-02T09:24:06.014Z,65.1
2018-06-02T09:25:13.995Z,68.2
2018-06-02T09:26:22.191Z,65.9
2018-06-02T09:27:30.396Z,60.1
2018-06-02T09:28:37.060Z,59.6
2018-06-02T09:29:45.279Z,60.8
2018-06-02T09:30:53.212Z,63.9
2018-06-02T09:32:01.412Z,65
2018-06-02T09:33:09.626Z,62.4
2018-06-02T09:34:17.836Z,59.7
2018-06-02T09:35:26.134Z,62.3
2018-06-02T09:36:34.064Z,73.5
2018-06-02T09:37:42.271Z,67.8
2018-06-02T09:38:50.475Z,79.9
2018-06-02T09:39:58.709Z,59.9
2018-06-02T09:41:06.908Z,67.2
2018-06-02T09:42:15.118Z,63.7
2018-06-02T09:43:23.324Z,65
2018-06-02T09:44:31.528Z,65.3
2018-06-02T09:45:39.734Z,63.6
2018-06-02T09:46:47.948Z,63.4
2018-06-02T09:47:56.154Z,61.1
2018-06-02T09:49:04.361Z,59.6
2018-06-02T09:50:12.568Z,65.4
2018-06-02T09:51:20.780Z,49.1
2018-06-02T09:52:28.711Z,59
2018-06-02T09:53:36.919Z,50.3
2018-06-02T09:54:45.125Z,53.2
2018-06-02T09:55:52.605Z,58.9
2018-06-02T09:57:00.816Z,52.7
2018-06-02T09:58:09.263Z,48.5
2018-06-02T09:59:17.468Z,51.8
2018-06-02T10:00:25.702Z,54.2
2018-06-02T10:01:33.230Z,59.1
2018-06-02T10:02:41.438Z,53.6
2018-06-02T10:03:48.671Z,52.6
2018-06-02T10:04:56.885Z,50.5
2018-06-02T10:06:05.091Z,47.6
2018-06-02T10:07:13.304Z,49.5
2018-06-02T10:08:21.508Z,47.2
2018-06-02T10:09:29.716Z,50.6
2018-06-02T10:10:37.992Z,44.7
2018-06-02T10:11:46.560Z,52.3
2018-06-02T10:12:54.763Z,54.9
2018-06-02T10:14:01.979Z,57.2
2018-06-02T10:15:10.184Z,54.1
2018-06-02T10:16:18.387Z,52
2018-06-02T10:17:26.605Z,50.4
2018-06-02T10:18:34.803Z,50.9
2018-06-02T10:19:43.008Z,48.1
2018-06-02T10:20:51.218Z,49.7
2018-06-02T10:21:59.426Z,49.1
2018-06-02T10:23:07.631Z,50.4
2018-06-02T10:24:15.841Z,58.3
2018-06-02T10:25:23.807Z,47.5
2018-06-02T10:26:32.016Z,47.6
2018-06-02T10:27:40.211Z,50.3
2018-06-02T10:28:48.414Z,54.5
2018-06-02T10:29:56.617Z,43.4
2018-06-02T10:31:04.828Z,45.5
2018-06-02T10:32:13.031Z,48.6
2018-06-02T10:33:21.235Z,46
2018-06-02T10:34:29.446Z,56.1
2018-06-02T10:35:37.749Z,47.4
2018-06-02T10:36:46.429Z,38.1
2018-06-02T10:37:54.638Z,47.1
2018-06-02T10:39:01.600Z,49.2
2018-06-02T10:40:09.807Z,62.9
2018-06-02T10:41:18.016Z,55.1
2018-06-02T10:42:26.217Z,55.8
2018-06-02T10:43:34.144Z,44.7
2018-06-02T10:44:42.353Z,48.2
2018-06-02T10:45:50.286Z,46.7
2018-06-02T10:46:58.488Z,38.4
2018-06-02T10:48:06.694Z,30.5
2018-06-02T10:49:14.912Z,37.6
2018-06-02T10:50:23.121Z,28.8
2018-06-02T10:51:31.524Z,33.2
2018-06-02T10:52:39.729Z,26.9
2018-06-02T10:53:47.944Z,25.4
2018-06-02T10:54:55.876Z,29.2
2018-06-02T10:56:04.085Z,34.7
2018-06-02T10:57:11.599Z,34.1
2018-06-02T10:58:19.805Z,27.6
2018-06-02T10:59:28.058Z,34.6
2018-06-02T11:00:35.289Z,27.7
2018-06-02T11:01:43.254Z,28.2
2018-06-02T11:02:51.551Z,28.9
2018-06-02T11:03:59.756Z,35
2018-06-02T11:05:07.961Z,36.3
2018-06-02T11:06:16.165Z,40.5
2018-06-02T11:07:24.375Z,40.5
2018-06-02T11:08:32.579Z,41
2018-06-02T11:09:40.785Z,41.8
2018-06-02T11:10:49.215Z,47.4
2018-06-02T11:11:57.470Z,51.5
2018-06-02T11:13:05.674Z,50.5
2018-06-02T11:14:13.883Z,49.1
2018-06-02T11:15:22.090Z,53.4
2018-06-02T11:16:30.299Z,49.6
2018-06-02T11:17:37.541Z,45.1
2018-06-02T11:18:45.748Z,44.3
2018-06-02T11:19:53.976Z,44.9
2018-06-02T11:21:02.181Z,52.5
2018-06-02T11:22:10.118Z,48.3
2018-06-02T11:23:18.321Z,39.5
2018-06-02T11:24:26.559Z,32.5
2018-06-02T11:25:34.872Z,36.1
2018-06-02T11:26:43.094Z,41.5
2018-06-02T11:27:51.028Z,39.8
2018-06-02T11:28:58.965Z,29.3
2018-06-02T11:30:07.180Z,34.8
2018-06-02T11:31:14.382Z,36
2018-06-02T11:32:22.595Z,31.3
2018-06-02T11:33:30.807Z,32.5
2018-06-02T11:34:39.010Z,32.6
2018-06-02T11:35:47.283Z,34.8
2018-06-02T11:36:55.562Z,39.5
2018-06-02T11:38:03.767Z,35
2018-06-02T11:39:11.002Z,36.3
2018-06-02T11:40:19.206Z,42
2018-06-02T11:41:27.418Z,33.7
2018-06-02T11:42:35.629Z,37.8
2018-06-02T11:43:43.852Z,33.9
2018-06-02T11:44:52.064Z,39.9
2018-06-02T11:46:00.274Z,32.4
2018-06-02T11:47:08.203Z,26.1
2018-06-02T11:48:16.409Z,27.8
2018-06-02T11:49:24.614Z,25.1
2018-06-02T11:50:32.305Z,24.3
2018-06-02T11:51:40.229Z,26.3
2018-06-02T11:52:48.439Z,24.9
2018-06-02T11:53:56.642Z,28.2
2018-06-02T11:55:03.880Z,29.5
2018-06-02T11:56:12.311Z,22.4
2018-06-02T11:57:20.543Z,21.4
2018-06-02T11:58:27.506Z,25.3
2018-06-02T11:59:34.744Z,25.9
2018-06-02T12:00:41.976Z,23.5
2018-06-02T12:01:49.207Z,26.2
2018-06-02T12:02:57.135Z,24.4
2018-06-02T12:04:05.347Z,26.3
2018-06-02T12:05:13.561Z,29.4
2018-06-02T12:06:21.767Z,19.1
2018-06-02T12:07:29.978Z,21.8
2018-06-02T12:08:38.186Z,21.8
2018-06-02T12:09:46.390Z,23.1
2018-06-02T12:10:54.330Z,22.5
2018-06-02T12:12:02.539Z,25.8
2018-06-02T12:13:10.743Z,22.1
2018-06-02T12:14:18.958Z,22.1
2018-06-02T12:15:27.169Z,24.5
2018-06-02T12:16:35.378Z,19.9
2018-06-02T12:17:43.324Z,20.2
2018-06-02T12:18:51.542Z,27.3
2018-06-02T12:19:59.744Z,20.3
2018-06-02T12:21:07.951Z,20.3
2018-06-02T12:22:16.168Z,23.7
2018-06-02T12:23:24.107Z,20.5
2018-06-02T12:24:32.314Z,15
2018-06-02T12:25:40.523Z,19.9
2018-06-02T12:26:48.733Z,16.5
2018-06-02T12:27:56.946Z,15.6
2018-06-02T12:29:05.155Z,14.6
2018-06-02T12:30:13.372Z,16.4
2018-06-02T12:31:21.316Z,17.3
2018-06-02T12:32:29.520Z,19.4
2018-06-02T12:33:37.468Z,15.5
2018-06-02T12:34:45.720Z,16.9
2018-06-02T12:35:54.052Z,14
2018-06-02T12:37:02.006Z,17.9
2018-06-02T12:38:10.217Z,16.4
2018-06-02T12:39:18.149Z,16.9
2018-06-02T12:40:26.090Z,18.3
2018-06-02T12:41:34.301Z,22.9
2018-06-02T12:42:42.244Z,28
2018-06-02T12:43:50.464Z,34
2018-06-02T12:44:58.406Z,32.6
2018-06-02T12:46:06.338Z,28.4
2018-06-02T12:47:14.544Z,28.1
2018-06-02T12:48:22.779Z,28.3
2018-06-02T12:49:30.993Z,32.6
2018-06-02T12:50:39.201Z,29
2018-06-02T12:51:47.415Z,31.2
2018-06-02T12:52:55.346Z,31.8
2018-06-02T12:54:03.023Z,31.6
2018-06-02T12:55:10.553Z,33.3
2018-06-02T12:56:18.761Z,29.7
2018-06-02T12:57:26.720Z,30
2018-06-02T12:58:33.968Z,27.4
2018-06-02T12:59:42.186Z,21.9
2018-06-02T13:00:50.992Z,23.6
2018-06-02T13:01:59.208Z,16.1
2018-06-02T13:03:07.419Z,21.2
2018-06-02T13:04:15.645Z,18.7
2018-06-02T13:05:23.580Z,17.7
2018-06-02T13:06:31.829Z,23.5
2018-06-02T13:07:40.040Z,16.5
2018-06-02T13:08:47.297Z,14
2018-06-02T13:09:55.127Z,16.8
2018-06-02T13:11:02.363Z,13.6
2018-06-02T13:12:10.599Z,14
2018-06-02T13:13:18.796Z,15.8
2018-06-02T13:14:26.997Z,18.1
2018-06-02T13:15:34.243Z,13.3
2018-06-02T13:16:42.181Z,13.9
2018-06-02T13:17:50.407Z,16.8
2018-06-02T13:18:58.612Z,12.3
2018-06-02T13:20:05.853Z,13
2018-06-02T13:21:14.070Z,14.8
2018-06-02T13:22:22.467Z,16.7
2018-06-02T13:23:30.676Z,16.2
2018-06-02T13:24:38.609Z,16.9
2018-06-02T13:25:46.825Z,14.3
2018-06-02T13:26:55.039Z,15.7
2018-06-02T13:28:03.264Z,16.2
2018-06-02T13:29:11.473Z,23.5
2018-06-02T13:30:19.699Z,17.7
2018-06-02T13:31:27.932Z,13
2018-06-02T13:32:36.143Z,19.2
2018-06-02T13:33:44.361Z,13.8
2018-06-02T13:34:52.584Z,14.5
2018-06-02T13:36:00.797Z,12
2018-06-02T13:37:08.730Z,13.2
2018-06-02T13:38:16.941Z,15.1
2018-06-02T13:39:24.882Z,16.1
2018-06-02T13:40:33.090Z,16.1
2018-06-02T13:41:41.305Z,18
2018-06-02T13:42:49.516Z,11
2018-06-02T13:43:57.737Z,13.2
2018-06-02T13:45:05.965Z,17.5
2018-06-02T13:46:14.277Z,15.2
2018-06-02T13:47:22.118Z,10.7
2018-06-02T13:48:30.058Z,9.4
2018-06-02T13:49:38.268Z,7.3
2018-06-02T13:50:46.487Z,11
2018-06-02T13:51:53.447Z,10.1
2018-06-02T13:53:00.692Z,9.7
2018-06-02T13:54:07.937Z,10.2
2018-06-02T13:55:16.147Z,11.6
2018-06-02T13:56:23.516Z,11.6
2018-06-02T13:57:31.769Z,13
2018-06-02T13:58:40.032Z,13.9
2018-06-02T13:59:47.232Z,13.6
2018-06-02T14:00:54.485Z,16.7
2018-06-02T14:02:01.775Z,19.2
2018-06-02T14:03:10.000Z,21.7
2018-06-02T14:04:18.217Z,22.5
2018-06-02T14:05:25.627Z,25.4
2018-06-02T14:06:33.843Z,25.1
2018-06-02T14:07:42.061Z,24.3
2018-06-02T14:08:49.478Z,24.2
2018-06-02T14:09:57.689Z,25.6
2018-06-02T14:11:05.898Z,21.9
2018-06-02T14:12:14.106Z,24.2
2018-06-02T14:13:22.316Z,28.5
2018-06-02T14:14:29.646Z,24.2
2018-06-02T14:15:37.598Z,28.1
2018-06-02T14:16:45.539Z,27.1
2018-06-02T14:17:52.773Z,24.5
2018-06-02T14:19:00.981Z,26.6
2018-06-02T14:20:09.208Z,20.6
2018-06-02T14:21:17.417Z,22.2
2018-06-02T14:22:24.707Z,20.9
2018-06-02T22:00:05.865Z,99.9
2018-06-02T22:01:12.557Z,99.9
2018-06-02T22:02:19.799Z,99.9
2018-06-02T22:03:27.042Z,99.9
2018-06-02T22:04:34.283Z,99.9
2018-06-02T22:05:41.507Z,99.9
2018-06-02T22:06:48.796Z,99.9
2018-06-02T22:07:56.023Z,99.9
2018-06-02T22:09:03.255Z,99.9
2018-06-02T22:10:10.476Z,99.9
2018-06-02T22:11:17.437Z,99.9
2018-06-02T22:12:24.678Z,99.9
2018-06-02T22:13:31.897Z,99.9
2018-06-02T22:14:39.133Z,99.9
2018-06-02T22:15:46.078Z,99.9
2018-06-02T22:16:53.038Z,99.9
2018-06-02T22:17:59.988Z,99.9
2018-06-02T22:19:06.963Z,99.9
2018-06-02T22:20:14.189Z,99.9
2018-06-02T22:21:21.425Z,99.9
2018-06-02T22:22:28.679Z,99.9
2018-06-02T22:23:35.909Z,99.9
2018-06-02T22:24:43.146Z,99.9
2018-06-02T22:25:50.367Z,99.9
2018-06-02T22:26:57.601Z,99.9
2018-06-02T22:28:04.561Z,99.9
2018-06-02T22:29:11.804Z,99.9
2018-06-02T22:30:19.030Z,99.9
2018-06-02T22:31:26.275Z,99.9
2018-06-02T22:32:33.499Z,99.9
2018-06-02T22:33:40.744Z,99.9
2018-06-02T22:34:47.975Z,99.9
2018-06-02T22:35:55.209Z,99.9
2018-06-02T22:37:02.168Z,99.9
2018-06-02T22:38:09.420Z,99.9
2018-06-02T22:39:16.651Z,99.9
2018-06-02T22:40:23.609Z,99.9
2018-06-02T22:41:30.569Z,99.9
2018-06-02T22:42:37.792Z,99.9
2018-06-02T22:43:45.019Z,99.9
2018-06-02T22:44:52.242Z,99.9